sensor_id;sensor_type;location;lat;lon;timestamp;pressure;altitude;pressure_sealevel;temperature;humidity
77517;BME280;68414;53.946;27.634;2023-08-24T00:00:31;99009.062500;;;17.299999;72.221680
77517;BME280;68414;53.946;27.634;2023-08-24T00:01:31;99009.875000;;;17.410000;71.887695
77517;BME280;68414;53.946;27.634;2023-08-24T00:02:31;99010.281250;;;17.430000;71.802734
77517;BME280;68414;53.946;27.634;2023-08-24T00:03:30;99009.078125;;;17.370001;72.089844
77517;BME280;68414;53.946;27.634;2023-08-24T00:04:30;99006.296875;;;17.340000;72.413086
77517;BME280;68414;53.946;27.634;2023-08-24T00:06:30;99009.445312;;;17.180000;72.323242
77517;BME280;68414;53.946;27.634;2023-08-24T00:07:30;99013.015625;;;17.120001;72.553711
77517;BME280;68414;53.946;27.634;2023-08-24T00:08:30;99003.046875;;;17.110001;72.958984
77517;BME280;68414;53.946;27.634;2023-08-24T00:09:30;99003.476562;;;17.200001;72.708984
77517;BME280;68414;53.946;27.634;2023-08-24T00:10:31;99004.250000;;;17.129999;72.413086
77517;BME280;68414;53.946;27.634;2023-08-24T00:11:32;99008.218750;;;17.049999;72.651367
77517;BME280;68414;53.946;27.634;2023-08-24T00:12:32;99007.039062;;;17.100000;72.757812
77517;BME280;68414;53.946;27.634;2023-08-24T00:13:31;99003.882812;;;17.150000;72.964844
77517;BME280;68414;53.946;27.634;2023-08-24T00:14:30;99004.656250;;;17.080000;72.998047
77517;BME280;68414;53.946;27.634;2023-08-24T00:15:30;99007.414062;;;17.049999;72.684570
77517;BME280;68414;53.946;27.634;2023-08-24T00:16:30;99002.656250;;;17.020000;72.559570
77517;BME280;68414;53.946;27.634;2023-08-24T00:17:30;99003.023438;;;16.969999;72.694336
77517;BME280;68414;53.946;27.634;2023-08-24T00:18:30;99004.234375;;;16.990000;72.653320
77517;BME280;68414;53.946;27.634;2023-08-24T00:19:30;99004.632812;;;16.980000;72.673828
77517;BME280;68414;53.946;27.634;2023-08-24T00:20:31;99003.796875;;;16.940001;72.809570
77517;BME280;68414;53.946;27.634;2023-08-24T00:21:30;99004.203125;;;16.920000;72.609375
77517;BME280;68414;53.946;27.634;2023-08-24T00:22:30;99009.734375;;;16.850000;72.850586
77517;BME280;68414;53.946;27.634;2023-08-24T00:23:30;99011.750000;;;16.850000;72.804688
77517;BME280;68414;53.946;27.634;2023-08-24T00:24:30;99006.179688;;;16.850000;72.739258
77517;BME280;68414;53.946;27.634;2023-08-24T00:25:30;99003.359375;;;16.809999;73.063477
77517;BME280;68414;53.946;27.634;2023-08-24T00:26:30;99007.718750;;;16.790001;73.047852
77517;BME280;68414;53.946;27.634;2023-08-24T00:27:30;99004.164062;;;16.780001;72.949219
77517;BME280;68414;53.946;27.634;2023-08-24T00:28:30;99008.562500;;;16.830000;72.768555
77517;BME280;68414;53.946;27.634;2023-08-24T00:29:30;99012.109375;;;16.799999;72.807617
77517;BME280;68414;53.946;27.634;2023-08-24T00:30:32;99010.500000;;;16.790001;72.982422
77517;BME280;68414;53.946;27.634;2023-08-24T00:31:30;99001.789062;;;16.870001;72.644531
77517;BME280;68414;53.946;27.634;2023-08-24T00:32:30;99004.976562;;;16.889999;72.318359
77517;BME280;68414;53.946;27.634;2023-08-24T00:33:30;99000.609375;;;16.879999;72.339844
77517;BME280;68414;53.946;27.634;2023-08-24T00:34:30;99007.359375;;;16.870001;72.468750
77517;BME280;68414;53.946;27.634;2023-08-24T00:35:33;99007.789062;;;16.930000;72.083008
77517;BME280;68414;53.946;27.634;2023-08-24T00:36:30;99001.781250;;;16.840000;72.486328
77517;BME280;68414;53.946;27.634;2023-08-24T00:37:30;99001.382812;;;16.780001;72.553711
77517;BME280;68414;53.946;27.634;2023-08-24T00:38:30;98999.773438;;;16.770000;73.187500
77517;BME280;68414;53.946;27.634;2023-08-24T00:39:30;99004.976562;;;16.889999;73.185547
77517;BME280;68414;53.946;27.634;2023-08-24T00:40:32;98998.265625;;;16.969999;72.365234
77517;BME280;68414;53.946;27.634;2023-08-24T00:41:32;99005.812500;;;16.969999;72.298828
77517;BME280;68414;53.946;27.634;2023-08-24T00:42:32;99001.851562;;;16.980000;72.322266
77517;BME280;68414;53.946;27.634;2023-08-24T00:43:30;98997.062500;;;16.950001;72.229492
77517;BME280;68414;53.946;27.634;2023-08-24T00:44:30;98997.828125;;;16.920000;72.212891
77517;BME280;68414;53.946;27.634;2023-08-24T00:45:30;98999.031250;;;16.940001;72.425781
77517;BME280;68414;53.946;27.634;2023-08-24T00:46:32;98999.843750;;;16.950001;72.262695
77517;BME280;68414;53.946;27.634;2023-08-24T00:47:30;98995.453125;;;16.870001;72.401367
77517;BME280;68414;53.946;27.634;2023-08-24T00:48:30;99003.765625;;;16.799999;72.863281
77517;BME280;68414;53.946;27.634;2023-08-24T00:49:31;98990.656250;;;16.799999;72.952148
77517;BME280;68414;53.946;27.634;2023-08-24T00:50:30;98992.632812;;;16.799999;72.786133
77517;BME280;68414;53.946;27.634;2023-08-24T00:51:31;98998.632812;;;16.889999;72.636719
77517;BME280;68414;53.946;27.634;2023-08-24T00:52:31;98993.062500;;;16.889999;72.559570
77517;BME280;68414;53.946;27.634;2023-08-24T00:53:30;98996.250000;;;16.940001;72.349609
77517;BME280;68414;53.946;27.634;2023-08-24T00:54:31;98994.273438;;;16.950001;72.317383
77517;BME280;68414;53.946;27.634;2023-08-24T00:55:30;98995.078125;;;17.020000;72.165039
77517;BME280;68414;53.946;27.634;2023-08-24T00:56:30;98995.476562;;;16.969999;71.804688
77517;BME280;68414;53.946;27.634;2023-08-24T00:57:32;99001.843750;;;17.010000;71.865234
77517;BME280;68414;53.946;27.634;2023-08-24T00:58:31;98989.937500;;;17.080000;71.469727
77517;BME280;68414;53.946;27.634;2023-08-24T00:59:31;98996.679688;;;17.070000;71.447266
77517;BME280;68414;53.946;27.634;2023-08-24T01:00:32;98995.500000;;;17.040001;71.794922
77517;BME280;68414;53.946;27.634;2023-08-24T01:01:30;98997.078125;;;17.049999;71.355469
77517;BME280;68414;53.946;27.634;2023-08-24T01:02:31;99003.421875;;;17.020000;71.264648
77517;BME280;68414;53.946;27.634;2023-08-24T01:03:30;99002.250000;;;17.000000;71.556641
77517;BME280;68414;53.946;27.634;2023-08-24T01:04:32;98993.523438;;;17.080000;71.163086
77517;BME280;68414;53.946;27.634;2023-08-24T01:05:30;98994.296875;;;17.090000;71.165039
77517;BME280;68414;53.946;27.634;2023-08-24T01:06:30;98991.921875;;;17.040001;71.452148
77517;BME280;68414;53.946;27.634;2023-08-24T01:07:31;98992.718750;;;17.040001;71.563477
77517;BME280;68414;53.946;27.634;2023-08-24T01:08:30;98999.468750;;;17.070000;71.238281
77517;BME280;68414;53.946;27.634;2023-08-24T01:09:30;98992.718750;;;17.080000;71.128906
77517;BME280;68414;53.946;27.634;2023-08-24T01:10:39;98997.484375;;;17.110001;71.333008
77517;BME280;68414;53.946;27.634;2023-08-24T01:16:31;98997.109375;;;17.120001;71.279297
77517;BME280;68414;53.946;27.634;2023-08-24T01:17:30;98997.078125;;;17.090000;71.296875
77517;BME280;68414;53.946;27.634;2023-08-24T01:18:30;98993.875000;;;16.959999;71.781250
77517;BME280;68414;53.946;27.634;2023-08-24T01:20:30;99000.984375;;;16.830000;72.660156
77517;BME280;68414;53.946;27.634;2023-08-24T01:21:32;98989.882812;;;16.870001;71.929688
77517;BME280;68414;53.946;27.634;2023-08-24T01:26:30;98989.484375;;;16.850000;71.915039
77517;BME280;68414;53.946;27.634;2023-08-24T01:27:31;98991.859375;;;16.860001;71.786133
77517;BME280;68414;53.946;27.634;2023-08-24T01:28:30;98994.609375;;;16.790001;71.929688
77517;BME280;68414;53.946;27.634;2023-08-24T01:29:31;98988.203125;;;16.639999;72.531250
77517;BME280;68414;53.946;27.634;2023-08-24T01:30:30;98998.929688;;;16.620001;72.704102
77517;BME280;68414;53.946;27.634;2023-08-24T01:31:30;98998.531250;;;16.670000;72.568359
77517;BME280;68414;53.946;27.634;2023-08-24T01:32:31;98990.187500;;;16.670000;72.513672
77517;BME280;68414;53.946;27.634;2023-08-24T01:33:30;98996.101562;;;16.520000;73.727539
77517;BME280;68414;53.946;27.634;2023-08-24T01:34:30;98993.250000;;;16.480000;73.393555
77517;BME280;68414;53.946;27.634;2023-08-24T01:35:31;98992.046875;;;16.459999;73.849609
77517;BME280;68414;53.946;27.634;2023-08-24T01:36:30;98989.257812;;;16.420000;73.678711
77517;BME280;68414;53.946;27.634;2023-08-24T01:37:30;98993.640625;;;16.430000;73.592773
77517;BME280;68414;53.946;27.634;2023-08-24T01:38:30;98997.640625;;;16.490000;73.460938
77517;BME280;68414;53.946;27.634;2023-08-24T01:41:30;98995.296875;;;16.549999;73.272461
77517;BME280;68414;53.946;27.634;2023-08-24T01:42:31;98995.296875;;;16.510000;73.650391
77517;BME280;68414;53.946;27.634;2023-08-24T01:43:30;98984.578125;;;16.570000;73.670898
77517;BME280;68414;53.946;27.634;2023-08-24T01:44:32;98995.218750;;;16.440001;74.241211
77517;BME280;68414;53.946;27.634;2023-08-24T01:45:31;98994.359375;;;16.299999;74.777344
77517;BME280;68414;53.946;27.634;2023-08-24T01:46:30;98993.195312;;;16.340000;74.489258
77517;BME280;68414;53.946;27.634;2023-08-24T01:47:30;98991.640625;;;16.440001;74.066406
77517;BME280;68414;53.946;27.634;2023-08-24T01:48:30;99000.734375;;;16.370001;74.362305
77517;BME280;68414;53.946;27.634;2023-08-24T01:49:30;98998.390625;;;16.389999;74.189453
77517;BME280;68414;53.946;27.634;2023-08-24T01:50:30;98996.390625;;;16.400000;74.288086
77517;BME280;68414;53.946;27.634;2023-08-24T01:51:30;98995.171875;;;16.340000;74.476562
77517;BME280;68414;53.946;27.634;2023-08-24T01:52:31;99002.390625;;;16.450001;74.253906
77517;BME280;68414;53.946;27.634;2023-08-24T01:53:32;98993.640625;;;16.430000;73.812500
77517;BME280;68414;53.946;27.634;2023-08-24T01:54:31;98990.875000;;;16.469999;74.136719
77517;BME280;68414;53.946;27.634;2023-08-24T01:55:30;98989.734375;;;16.549999;73.875977
77517;BME280;68414;53.946;27.634;2023-08-24T01:56:30;98991.757812;;;16.610001;73.481445
77517;BME280;68414;53.946;27.634;2023-08-24T01:57:30;98993.359375;;;16.620001;73.263672
77517;BME280;68414;53.946;27.634;2023-08-24T01:58:30;98992.554688;;;16.580000;73.475586
77517;BME280;68414;53.946;27.634;2023-08-24T01:59:30;98992.921875;;;16.530001;73.752930
77517;BME280;68414;53.946;27.634;2023-08-24T02:00:30;98996.507812;;;16.570000;73.343750
77517;BME280;68414;53.946;27.634;2023-08-24T02:01:30;98985.703125;;;16.450001;73.497070
77517;BME280;68414;53.946;27.634;2023-08-24T02:02:31;98988.085938;;;16.469999;73.631836
77517;BME280;68414;53.946;27.634;2023-08-24T02:03:31;98988.929688;;;16.510000;73.650391
77517;BME280;68414;53.946;27.634;2023-08-24T02:04:30;98988.929688;;;16.510000;73.475586
77517;BME280;68414;53.946;27.634;2023-08-24T02:05:30;98987.281250;;;16.459999;73.774414
77517;BME280;68414;53.946;27.634;2023-08-24T02:06:30;98984.906250;;;16.480000;73.437500
77517;BME280;68414;53.946;27.634;2023-08-24T02:07:30;98984.132812;;;16.480000;73.579102
77517;BME280;68414;53.946;27.634;2023-08-24T02:08:30;98977.804688;;;16.510000;73.935547
77517;BME280;68414;53.946;27.634;2023-08-24T02:09:30;98986.187500;;;16.540001;73.326172
77517;BME280;68414;53.946;27.634;2023-08-24T02:10:30;98990.937500;;;16.540001;73.533203
77517;BME280;68414;53.946;27.634;2023-08-24T02:11:30;98987.765625;;;16.590000;73.585938
77517;BME280;68414;53.946;27.634;2023-08-24T02:12:30;98988.562500;;;16.590000;73.543945
77517;BME280;68414;53.946;27.634;2023-08-24T02:13:30;98988.968750;;;16.610001;73.316406
77517;BME280;68414;53.946;27.634;2023-08-24T02:14:30;98992.953125;;;16.600000;73.359375
77517;BME280;68414;53.946;27.634;2023-08-24T02:15:31;98987.390625;;;16.600000;73.117188
77517;BME280;68414;53.946;27.634;2023-08-24T02:16:32;98992.921875;;;16.530001;73.577148
77517;BME280;68414;53.946;27.634;2023-08-24T02:17:30;98991.281250;;;16.490000;73.821289
77517;BME280;68414;53.946;27.634;2023-08-24T02:18:30;98998.406250;;;16.459999;73.873047
77517;BME280;68414;53.946;27.634;2023-08-24T02:19:30;98988.039062;;;16.360001;74.119141
77517;BME280;68414;53.946;27.634;2023-08-24T02:20:34;98988.039062;;;16.360001;74.064453
77517;BME280;68414;53.946;27.634;2023-08-24T02:21:34;98990.054688;;;16.389999;74.167969
77517;BME280;68414;53.946;27.634;2023-08-24T02:22:33;98995.218750;;;16.410000;74.137695
77517;BME280;68414;53.946;27.634;2023-08-24T02:23:30;98992.437500;;;16.440001;73.583008
77517;BME280;68414;53.946;27.634;2023-08-24T02:24:33;98984.890625;;;16.410000;73.896484
77517;BME280;68414;53.946;27.634;2023-08-24T02:25:30;98992.031250;;;16.420000;74.095703
77517;BME280;68414;53.946;27.634;2023-08-24T02:26:30;98986.109375;;;16.469999;74.105469
77517;BME280;68414;53.946;27.634;2023-08-24T02:27:31;98979.406250;;;16.520000;73.935547
77517;BME280;68414;53.946;27.634;2023-08-24T02:28:32;98980.625000;;;16.580000;73.924805
77517;BME280;68414;53.946;27.634;2023-08-24T02:29:30;98989.375000;;;16.559999;73.844727
77517;BME280;68414;53.946;27.634;2023-08-24T02:30:30;98983.406250;;;16.580000;73.661133
77517;BME280;68414;53.946;27.634;2023-08-24T02:31:30;98982.968750;;;16.520000;73.773438
77517;BME280;68414;53.946;27.634;2023-08-24T02:32:30;98988.562500;;;16.559999;73.362305
77517;BME280;68414;53.946;27.634;2023-08-24T02:33:30;98986.953125;;;16.549999;73.393555
77517;BME280;68414;53.946;27.634;2023-08-24T02:34:32;98983.406250;;;16.580000;73.113281
77517;BME280;68414;53.946;27.634;2023-08-24T02:35:30;98979.859375;;;16.610001;73.106445
77517;BME280;68414;53.946;27.634;2023-08-24T02:36:31;98984.218750;;;16.620001;73.031250
77517;BME280;68414;53.946;27.634;2023-08-24T02:37:32;98982.601562;;;16.570000;73.541016
77517;BME280;68414;53.946;27.634;2023-08-24T02:38:30;98975.015625;;;16.510000;74.056641
77517;BME280;68414;53.946;27.634;2023-08-24T02:39:32;98987.757812;;;16.520000;73.848633
77517;BME280;68414;53.946;27.634;2023-08-24T02:40:32;98979.406250;;;16.520000;74.001953
77517;BME280;68414;53.946;27.634;2023-08-24T02:41:30;98980.187500;;;16.520000;73.937500
77517;BME280;68414;53.946;27.634;2023-08-24T02:42:30;98982.593750;;;16.540001;73.621094
77517;BME280;68414;53.946;27.634;2023-08-24T02:43:30;98973.046875;;;16.549999;73.558594
77517;BME280;68414;53.946;27.634;2023-08-24T02:44:30;98975.859375;;;16.580000;73.541016
77517;BME280;68414;53.946;27.634;2023-08-24T02:45:30;98980.625000;;;16.610001;73.294922
77517;BME280;68414;53.946;27.634;2023-08-24T02:46:31;98971.906250;;;16.629999;73.208984
77517;BME280;68414;53.946;27.634;2023-08-24T02:47:30;98972.281250;;;16.540001;74.006836
77517;BME280;68414;53.946;27.634;2023-08-24T02:48:30;98977.843750;;;16.580000;73.530273
77517;BME280;68414;53.946;27.634;2023-08-24T02:49:32;98978.250000;;;16.600000;73.577148
77517;BME280;68414;53.946;27.634;2023-08-24T02:50:30;98980.984375;;;16.530001;73.916992
77517;BME280;68414;53.946;27.634;2023-08-24T02:51:30;98979.414062;;;16.549999;74.020508
77517;BME280;68414;53.946;27.634;2023-08-24T02:52:32;98975.828125;;;16.549999;73.613281
77517;BME280;68414;53.946;27.634;2023-08-24T02:53:30;98987.671875;;;16.410000;74.675781
77517;BME280;68414;53.946;27.634;2023-08-24T02:54:30;98976.968750;;;16.469999;74.125977
77517;BME280;68414;53.946;27.634;2023-08-24T02:55:31;98980.585938;;;16.510000;74.078125
77517;BME280;68414;53.946;27.634;2023-08-24T02:56:30;98982.593750;;;16.540001;73.862305
77517;BME280;68414;53.946;27.634;2023-08-24T02:57:30;98986.585938;;;16.559999;73.976562
77517;BME280;68414;53.946;27.634;2023-08-24T02:58:30;98983.406250;;;16.610001;73.733398
77517;BME280;68414;53.946;27.634;2023-08-24T02:59:32;98984.218750;;;16.650000;73.509766
77517;BME280;68414;53.946;27.634;2023-08-24T03:00:30;98987.835938;;;16.700001;73.199219
77517;BME280;68414;53.946;27.634;2023-08-24T03:01:31;98985.054688;;;16.730000;73.071289
77517;BME280;68414;53.946;27.634;2023-08-24T03:02:31;98986.593750;;;16.629999;73.155273
77517;BME280;68414;53.946;27.634;2023-08-24T03:03:31;98977.843750;;;16.580000;73.924805
77517;BME280;68414;53.946;27.634;2023-08-24T03:04:31;98978.609375;;;16.510000;73.792969
77517;BME280;68414;53.946;27.634;2023-08-24T03:05:30;98982.968750;;;16.520000;73.399414
77517;BME280;68414;53.946;27.634;2023-08-24T03:06:30;98977.367188;;;16.490000;73.711914
77517;BME280;68414;53.946;27.634;2023-08-24T03:07:30;98980.914062;;;16.459999;73.784180
77517;BME280;68414;53.946;27.634;2023-08-24T03:08:32;98974.171875;;;16.430000;74.163086
77517;BME280;68414;53.946;27.634;2023-08-24T03:09:30;98971.000000;;;16.480000;73.931641
77517;BME280;68414;53.946;27.634;2023-08-24T03:10:31;98975.390625;;;16.490000;73.669922
77517;BME280;68414;53.946;27.634;2023-08-24T03:11:30;98978.203125;;;16.530001;73.653320
77517;BME280;68414;53.946;27.634;2023-08-24T03:12:31;98978.203125;;;16.530001;73.960938
77517;BME280;68414;53.946;27.634;2023-08-24T03:13:30;98981.023438;;;16.559999;73.668945
77517;BME280;68414;53.946;27.634;2023-08-24T03:14:30;98973.859375;;;16.590000;73.629883
77517;BME280;68414;53.946;27.634;2023-08-24T03:15:30;98980.218750;;;16.590000;73.510742
77517;BME280;68414;53.946;27.634;2023-08-24T03:16:30;98984.609375;;;16.600000;73.709961
77517;BME280;68414;53.946;27.634;2023-08-24T03:17:30;98988.125000;;;16.500000;73.758789
77517;BME280;68414;53.946;27.634;2023-08-24T03:18:30;98987.351562;;;16.500000;74.338867
77517;BME280;68414;53.946;27.634;2023-08-24T03:19:33;98994.453125;;;16.469999;74.324219
77517;BME280;68414;53.946;27.634;2023-08-24T03:20:30;98994.000000;;;16.379999;74.747070
77517;BME280;68414;53.946;27.634;2023-08-24T03:21:30;98998.351562;;;16.320000;74.639648
77517;BME280;68414;53.946;27.634;2023-08-24T03:22:30;98988.343750;;;16.209999;75.166992
77517;BME280;68414;53.946;27.634;2023-08-24T03:23:30;99000.625000;;;16.160000;75.115234
77517;BME280;68414;53.946;27.634;2023-08-24T03:24:30;98998.593750;;;16.100000;75.443359
77517;BME280;68414;53.946;27.634;2023-08-24T03:26:30;99001.312500;;;15.990000;76.181641
77517;BME280;68414;53.946;27.634;2023-08-24T03:27:30;98999.328125;;;16.000000;76.182617
77517;BME280;68414;53.946;27.634;2023-08-24T03:28:30;99001.312500;;;15.990000;76.170898
77517;BME280;68414;53.946;27.634;2023-08-24T03:29:30;99000.898438;;;15.970000;76.210938
77517;BME280;68414;53.946;27.634;2023-08-24T03:30:30;98996.140625;;;15.980000;76.156250
77517;BME280;68414;53.946;27.634;2023-08-24T03:31:30;98991.796875;;;16.000000;75.854492
77517;BME280;68414;53.946;27.634;2023-08-24T03:32:30;99000.953125;;;16.040001;75.622070
77517;BME280;68414;53.946;27.634;2023-08-24T03:33:32;99000.562500;;;16.059999;75.732422
77517;BME280;68414;53.946;27.634;2023-08-24T03:34:30;99002.187500;;;16.139999;76.086914
77517;BME280;68414;53.946;27.634;2023-08-24T03:35:30;99003.859375;;;16.250000;75.382812
77517;BME280;68414;53.946;27.634;2023-08-24T03:36:30;99007.046875;;;16.270000;75.309570
77517;BME280;68414;53.946;27.634;2023-08-24T03:37:30;99001.484375;;;16.270000;75.287109
77517;BME280;68414;53.946;27.634;2023-08-24T03:38:30;99007.039062;;;16.240000;75.839844
77517;BME280;68414;53.946;27.634;2023-08-24T03:39:30;99001.093750;;;16.290001;75.915039
77517;BME280;68414;53.946;27.634;2023-08-24T03:40:30;98999.062500;;;16.219999;75.411133
77517;BME280;68414;53.946;27.634;2023-08-24T03:41:30;99004.218750;;;16.200001;75.144531
77517;BME280;68414;53.946;27.634;2023-08-24T03:42:33;99001.437500;;;16.200001;74.848633
77517;BME280;68414;53.946;27.634;2023-08-24T03:43:31;99002.234375;;;16.170000;74.875977
77517;BME280;68414;53.946;27.634;2023-08-24T03:44:30;98999.859375;;;16.190001;74.944336
77517;BME280;68414;53.946;27.634;2023-08-24T03:45:30;98997.078125;;;16.190001;74.977539
77517;BME280;68414;53.946;27.634;2023-08-24T03:46:30;98999.875000;;;16.230000;74.502930
77517;BME280;68414;53.946;27.634;2023-08-24T03:47:30;98993.546875;;;16.260000;74.681641
77517;BME280;68414;53.946;27.634;2023-08-24T03:48:31;98995.976562;;;16.340000;74.477539
77517;BME280;68414;53.946;27.634;2023-08-24T03:49:30;98995.171875;;;16.340000;74.399414
77517;BME280;68414;53.946;27.634;2023-08-24T03:50:30;98996.734375;;;16.309999;74.723633
77517;BME280;68414;53.946;27.634;2023-08-24T03:51:30;98997.960938;;;16.370001;74.712891
77517;BME280;68414;53.946;27.634;2023-08-24T03:52:31;98998.804688;;;16.410000;74.806641
77517;BME280;68414;53.946;27.634;2023-08-24T03:53:31;99002.070312;;;16.540001;74.323242
77517;BME280;68414;53.946;27.634;2023-08-24T03:54:31;98998.046875;;;16.480000;73.753906
77517;BME280;68414;53.946;27.634;2023-08-24T03:55:30;98998.804688;;;16.410000;74.708008
77517;BME280;68414;53.946;27.634;2023-08-24T03:56:31;99008.726562;;;16.420000;74.644531
77517;BME280;68414;53.946;27.634;2023-08-24T03:57:30;99000.015625;;;16.469999;74.609375
77517;BME280;68414;53.946;27.634;2023-08-24T03:58:30;99006.828125;;;16.530001;74.125977
77517;BME280;68414;53.946;27.634;2023-08-24T03:59:30;99004.046875;;;16.530001;74.235352
77517;BME280;68414;53.946;27.634;2023-08-24T04:00:30;99008.039062;;;16.559999;73.998047
77517;BME280;68414;53.946;27.634;2023-08-24T04:01:30;99005.664062;;;16.610001;73.624023
77517;BME280;68414;53.946;27.634;2023-08-24T04:02:30;99011.265625;;;16.680000;73.624023
77517;BME280;68414;53.946;27.634;2023-08-24T04:03:30;99006.507812;;;16.690001;73.087891
77517;BME280;68414;53.946;27.634;2023-08-24T04:04:31;99015.265625;;;16.709999;73.090820
77517;BME280;68414;53.946;27.634;2023-08-24T04:05:30;99015.265625;;;16.750000;72.811523
77517;BME280;68414;53.946;27.634;2023-08-24T04:06:30;99012.515625;;;16.850000;73.070312
77517;BME280;68414;53.946;27.634;2023-08-24T04:07:30;99010.171875;;;16.940001;72.393555
77517;BME280;68414;53.946;27.634;2023-08-24T04:08:30;99015.398438;;;17.059999;72.017578
77517;BME280;68414;53.946;27.634;2023-08-24T04:09:30;99017.406250;;;17.129999;70.698242
77517;BME280;68414;53.946;27.634;2023-08-24T04:10:30;99014.242188;;;17.209999;71.337891
77517;BME280;68414;53.946;27.634;2023-08-24T04:11:30;99013.859375;;;17.299999;71.043945
77517;BME280;68414;53.946;27.634;2023-08-24T04:13:32;99006.281250;;;17.299999;71.496094
77517;BME280;68414;53.946;27.634;2023-08-24T04:14:30;99001.937500;;;17.360001;70.999023
77517;BME280;68414;53.946;27.634;2023-08-24T04:15:30;99004.273438;;;17.240000;70.395508
77517;BME280;68414;53.946;27.634;2023-08-24T04:16:30;99012.640625;;;17.170000;70.945312
77517;BME280;68414;53.946;27.634;2023-08-24T04:17:30;99002.703125;;;17.190001;70.642578
77517;BME280;68414;53.946;27.634;2023-08-24T04:18:32;99010.250000;;;17.190001;70.949219
77517;BME280;68414;53.946;27.634;2023-08-24T04:19:30;99002.265625;;;17.170000;71.341797
77517;BME280;68414;53.946;27.634;2023-08-24T04:20:30;99006.687500;;;17.250000;71.015625
77517;BME280;68414;53.946;27.634;2023-08-24T04:21:31;99006.687500;;;17.250000;70.883789
77517;BME280;68414;53.946;27.634;2023-08-24T04:22:30;99007.468750;;;17.190001;71.278320
77517;BME280;68414;53.946;27.634;2023-08-24T04:23:32;99005.054688;;;17.170000;70.165039
77517;BME280;68414;53.946;27.634;2023-08-24T04:24:30;99008.671875;;;17.209999;69.897461
77517;BME280;68414;53.946;27.634;2023-08-24T04:25:30;99015.421875;;;17.200001;70.104492
77517;BME280;68414;53.946;27.634;2023-08-24T04:26:30;99015.812500;;;17.219999;70.284180
77517;BME280;68414;53.946;27.634;2023-08-24T04:27:30;99014.640625;;;17.270000;70.016602
77517;BME280;68414;53.946;27.634;2023-08-24T04:28:30;99010.250000;;;17.219999;70.196289
77517;BME280;68414;53.946;27.634;2023-08-24T04:29:30;99010.250000;;;17.190001;70.508789
77517;BME280;68414;53.946;27.634;2023-08-24T04:30:30;99006.703125;;;17.360001;70.370117
77517;BME280;68414;53.946;27.634;2023-08-24T04:31:30;99017.046875;;;17.459999;70.695312
77517;BME280;68414;53.946;27.634;2023-08-24T04:32:31;99013.929688;;;17.580000;70.375000
77517;BME280;68414;53.946;27.634;2023-08-24T04:33:30;99015.906250;;;17.610001;69.806641
77517;BME280;68414;53.946;27.634;2023-08-24T04:34:30;99014.718750;;;17.660000;69.197266
77517;BME280;68414;53.946;27.634;2023-08-24T04:36:30;99009.531250;;;17.889999;69.045898
77517;BME280;68414;53.946;27.634;2023-08-24T04:37:30;99011.140625;;;17.969999;68.054688
77517;BME280;68414;53.946;27.634;2023-08-24T04:38:30;99011.140625;;;17.900000;68.737305
77517;BME280;68414;53.946;27.634;2023-08-24T04:39:30;99015.125000;;;17.990000;68.522461
77517;BME280;68414;53.946;27.634;2023-08-24T04:40:42;99009.140625;;;17.830000;67.768555
77517;BME280;68414;53.946;27.634;2023-08-24T04:41:30;99005.562500;;;17.900000;68.407227
77517;BME280;68414;53.946;27.634;2023-08-24T04:42:31;99006.742188;;;17.959999;68.119141
77517;BME280;68414;53.946;27.634;2023-08-24T04:43:30;98993.984375;;;18.020000;67.421875
77517;BME280;68414;53.946;27.634;2023-08-24T04:44:30;99005.937500;;;18.090000;67.600586
77517;BME280;68414;53.946;27.634;2023-08-24T04:45:30;98999.164062;;;18.139999;66.790039
77517;BME280;68414;53.946;27.634;2023-08-24T04:46:30;98996.359375;;;18.170000;66.939453